Norbank — PGIS — position and weather

sailwx.info

Track history (hours):
 
Tides and Currents Weather Stations Pressure Air Temp Water Temp Dewpoint Dewpoint Depression Visibility Wind Speed Wind Dir Waves Ship Positions

Norbank

Operator: P & O Ferries

Last reported at 2020-Sep-19 07:29 UTC. Time now 2020-Sep-19 09:59 UTC.
Position N 53°21' W 006°13'.

Length 167 m; draft 5.6 m.

Type: Ship (hazmat cat B). MMSI: 246213000.

Date/timePositionNaut miles runAvg speedWind from/ knotsBaromVisibWave heightAir tempDewpointWater temp
2020-Sep-19 07:29N 53°21' W 006°13'0 0.0
2020-Sep-19 06:53N 53°21' W 006°13'0 0.0
2020-Sep-19 04:46N 53°21' W 006°13'0 0.0
2020-Sep-19 04:28N 53°21' W 006°13'8515.7
2020-Sep-18 23:03N 53°34' W 003°52'1017.9
2020-Sep-18 22:30N 53°33' W 003°36'22 8.6
2020-Sep-18 20:00N 53°27' W 003°01'0 0.0
2020-Sep-18 19:00N 53°27' W 003°01'0 0.0
2020-Sep-18 18:00N 53°27' W 003°01'12 3.9
2020-Sep-18 15:00N 53°31' W 003°19'2013.2
2020-Sep-18 13:30N 53°32' W 003°53'4615.1
2020-Sep-18 10:27N 53°31' W 005°10'3913.0
2020-Sep-18 07:28N 53°21' W 006°13'0 0.0
2020-Sep-18 07:00N 53°21' W 006°13'0 0.0
2020-Sep-18 05:00N 53°21' W 006°13'14 7.0
2020-Sep-18 03:01N 53°24' W 005°50'2717.6
2020-Sep-18 01:29N 53°31' W 005°07'1019.5
2020-Sep-18 00:59N 53°33' W 004°51'6611.9
2020-Sep-17 19:28N 53°27' W 003°01'0 0.0
2020-Sep-17 17:00N 53°27' W 003°01'3 2.3
2020-Sep-17 15:30N 53°30' W 003°05'1313.2
2020-Sep-17 14:30N 53°31' W 003°28'4116.3
2020-Sep-17 12:00N 53°36' W 004°36'6014.9
2020-Sep-17 08:00N 53°21' W 006°13'0 0.0
2020-Sep-17 07:26N 53°21' W 006°13'0 0.0
2020-Sep-17 06:50N 53°21' W 006°13'0 0.0
2020-Sep-17 06:29N 53°21' W 006°13'5 1.8
2020-Sep-17 03:30N 53°20' W 006°04'917.5
2020-Sep-17 03:01N 53°23' W 005°51'10115.5
2020-Sep-16 20:30N 53°27' W 003°01'0 0.0
2020-Sep-16 18:29N 53°27' W 003°01'0 0.0
2020-Sep-16 17:58N 53°27' W 003°01'0 0.0
2020-Sep-16 17:01N 53°27' W 003°01'0 0.9
2020-Sep-16 16:31N 53°27' W 003°01'11512.0
2020-Sep-16 06:56N 53°21' W 006°13'0 0.0
2020-Sep-16 04:59N 53°21' W 006°13'0 0.9
2020-Sep-16 04:30N 53°21' W 006°12'510.6
2020-Sep-16 04:00N 53°20' W 006°03'1918.8
2020-Sep-16 03:00N 53°26' W 005°33'6120.4
2020-Sep-16 00:00N 53°33' W 003°51'1019.8
2020-Sep-15 23:30N 53°33' W 003°34'1817.8
2020-Sep-15 22:31N 53°30' W 003°05'3 1.6
2020-Sep-15 20:30N 53°27' W 003°01'26 4.0
2020-Sep-15 14:00N 53°31' W 003°44'815.3
2020-Sep-15 13:29N 53°32' W 003°58'6315.7
2020-Sep-15 09:30N 53°24' W 005°42'19 9.2
2020-Sep-15 07:29N 53°21' W 006°13'0 0.0
2020-Sep-15 05:28N 53°21' W 006°13'13 5.4
2020-Sep-15 03:00N 53°23' W 005°51'917.0
2020-Sep-15 02:30N 53°25' W 005°37'9316.9
2020-Sep-14 21:00N 53°27' W 003°01'0 0.4
2020-Sep-14 19:58N 53°27' W 003°01'0 0.0
2020-Sep-14 14:30N 53°27' W 003°01'0 0.0
2020-Sep-14 12:30N 53°27' W 003°01'0 0.0
2020-Sep-14 09:59N 53°27' W 003°01'0 0.0
2020-Sep-14 06:28N 53°27' W 003°01'0 0.0
2020-Sep-14 05:30N 53°27' W 003°01'0 0.0
2020-Sep-14 05:00N 53°27' W 003°01'1 0.6
2020-Sep-14 04:00N 53°27' W 003°01'714.2
2020-Sep-14 03:30N 53°32' W 003°10'816.8
2020-Sep-14 03:01N 53°31' W 003°24'815.0
2020-Sep-14 02:31N 53°31' W 003°36'2415.7
2020-Sep-14 00:59N 53°35' W 004°16'3714.8
2020-Sep-13 22:30N 53°29' W 005°17'917.0
2020-Sep-13 22:00N 53°26' W 005°31'817.3
2020-Sep-13 21:30N 53°23' W 005°44'17 3.2
2020-Sep-13 16:00N 53°21' W 006°13'0 0.0
2020-Sep-13 15:30N 53°21' W 006°13'0 0.0
2020-Sep-13 14:17N 53°21' W 006°13'0 0.0
2020-Sep-13 13:29N 53°21' W 006°13'0 0.0
2020-Sep-13 09:00N 53°21' W 006°13'0 0.0
2020-Sep-13 08:24N 53°21' W 006°13'0 0.0
2020-Sep-13 04:59N 53°21' W 006°13'1 1.3
2020-Sep-13 04:30N 53°21' W 006°12'510.7
2020-Sep-13 04:01N 53°21' W 006°03'2913.6
2020-Sep-13 01:51N 53°31' W 005°17'7415.2
2020-Sep-12 21:01N 53°31' W 003°13'714.9
2020-Sep-12 20:31N 53°28' W 003°02'1 0.9
2020-Sep-12 19:29N 53°27' W 003°01'0 0.0
2020-Sep-12 17:28N 53°27' W 003°01'0 0.0
2020-Sep-12 16:00N 53°27' W 003°01'0 0.9
2020-Sep-12 15:30N 53°27' W 003°01'8 8.0
2020-Sep-12 14:30N 53°31' W 003°12'8016.9
2020-Sep-12 09:47N 53°27' W 005°26'2217.5
2020-Sep-12 08:30N 53°20' W 006°02'6 3.1
2020-Sep-12 06:27N 53°21' W 006°13'0 0.0
2020-Sep-12 05:00N 53°21' W 006°13'0 0.0
2020-Sep-12 04:30N 53°21' W 006°13'10116.9
2020-Sep-11 22:31N 53°33' W 003°24'15 4.2
2020-Sep-11 18:59N 53°27' W 003°01'97 9.8
2020-Sep-11 09:01N 53°25' W 005°44'917.6
2020-Sep-11 08:31N 53°22' W 005°58'714.1
2020-Sep-11 08:00N 53°21' W 006°10'2 1.3
2020-Sep-11 06:30N 53°21' W 006°13'0 0.0
2020-Sep-11 05:54N 53°21' W 006°13'4 2.0
2020-Sep-11 04:00N 53°20' W 006°07'917.6
2020-Sep-11 03:30N 53°23' W 005°53'7617.8
2020-Sep-10 23:16N 53°34' W 003°47'2318.5
2020-Sep-10 22:01N 53°32' W 003°08'612.4
2020-Sep-10 21:30N 53°27' W 003°01'0 0.1
2020-Sep-10 21:00N 53°27' W 003°01'0 0.3
2020-Sep-10 19:30N 53°27' W 003°01'27 5.3
2020-Sep-10 14:30N 53°32' W 003°45'6713.4
2020-Sep-10 09:30N 53°26' W 005°37'2214.6
2020-Sep-10 08:00N 53°21' W 006°13'0 0.1
2020-Sep-10 05:00N 53°21' W 006°13'4 3.0
2020-Sep-10 03:30N 53°20' W 006°06'8517.3
2020-Sep-09 22:37N 53°33' W 003°45'27 8.6
2020-Sep-09 19:29N 53°27' W 003°01'0 0.0
2020-Sep-09 17:59N 53°27' W 003°01'0 0.0
2020-Sep-09 17:28N 53°27' W 003°01'2 1.1
2020-Sep-09 16:00N 53°28' W 003°03'9313.5
2020-Sep-09 09:07N 53°26' W 005°39'218.0
2020-Sep-09 08:59N 53°25' W 005°43'1616.4
2020-Sep-09 08:00N 53°21' W 006°09'  
Track history (hours):
 
Tides and Currents Weather Stations Pressure Air Temp Water Temp Dewpoint Dewpoint Depression Visibility Wind Speed Wind Dir Waves Ship Positions

Norbank

Operator: P & O Ferries

Last reported at 2020-Sep-19 07:29 UTC. Time now 2020-Sep-19 09:59 UTC.
Position N 53°21' W 006°13'.

Length 167 m; draft 5.6 m.

Type: Ship (hazmat cat B). MMSI: 246213000.

Date/timePositionNaut miles runAvg speedWind from/ knotsBaromVisibWave heightAir tempDewpointWater temp
2020-Sep-19 07:29N 53°21' W 006°13'0 0.0
2020-Sep-19 06:53N 53°21' W 006°13'0 0.0
2020-Sep-19 04:46N 53°21' W 006°13'0 0.0
2020-Sep-19 04:28N 53°21' W 006°13'8515.7
2020-Sep-18 23:03N 53°34' W 003°52'1017.9
2020-Sep-18 22:30N 53°33' W 003°36'22 8.6
2020-Sep-18 20:00N 53°27' W 003°01'0 0.0
2020-Sep-18 19:00N 53°27' W 003°01'0 0.0
2020-Sep-18 18:00N 53°27' W 003°01'12 3.9
2020-Sep-18 15:00N 53°31' W 003°19'2013.2
2020-Sep-18 13:30N 53°32' W 003°53'4615.1
2020-Sep-18 10:27N 53°31' W 005°10'3913.0
2020-Sep-18 07:28N 53°21' W 006°13'0 0.0
2020-Sep-18 07:00N 53°21' W 006°13'0 0.0
2020-Sep-18 05:00N 53°21' W 006°13'14 7.0
2020-Sep-18 03:01N 53°24' W 005°50'2717.6
2020-Sep-18 01:29N 53°31' W 005°07'1019.5
2020-Sep-18 00:59N 53°33' W 004°51'6611.9
2020-Sep-17 19:28N 53°27' W 003°01'0 0.0
2020-Sep-17 17:00N 53°27' W 003°01'3 2.3
2020-Sep-17 15:30N 53°30' W 003°05'1313.2
2020-Sep-17 14:30N 53°31' W 003°28'4116.3
2020-Sep-17 12:00N 53°36' W 004°36'6014.9
2020-Sep-17 08:00N 53°21' W 006°13'0 0.0
2020-Sep-17 07:26N 53°21' W 006°13'0 0.0
2020-Sep-17 06:50N 53°21' W 006°13'0 0.0
2020-Sep-17 06:29N 53°21' W 006°13'5 1.8
2020-Sep-17 03:30N 53°20' W 006°04'917.5
2020-Sep-17 03:01N 53°23' W 005°51'10115.5
2020-Sep-16 20:30N 53°27' W 003°01'0 0.0
2020-Sep-16 18:29N 53°27' W 003°01'0 0.0
2020-Sep-16 17:58N 53°27' W 003°01'0 0.0
2020-Sep-16 17:01N 53°27' W 003°01'0 0.9
2020-Sep-16 16:31N 53°27' W 003°01'11512.0
2020-Sep-16 06:56N 53°21' W 006°13'0 0.0
2020-Sep-16 04:59N 53°21' W 006°13'0 0.9
2020-Sep-16 04:30N 53°21' W 006°12'510.6
2020-Sep-16 04:00N 53°20' W 006°03'1918.8
2020-Sep-16 03:00N 53°26' W 005°33'6120.4
2020-Sep-16 00:00N 53°33' W 003°51'1019.8
2020-Sep-15 23:30N 53°33' W 003°34'1817.8
2020-Sep-15 22:31N 53°30' W 003°05'3 1.6
2020-Sep-15 20:30N 53°27' W 003°01'26 4.0
2020-Sep-15 14:00N 53°31' W 003°44'815.3
2020-Sep-15 13:29N 53°32' W 003°58'6315.7
2020-Sep-15 09:30N 53°24' W 005°42'19 9.2
2020-Sep-15 07:29N 53°21' W 006°13'0 0.0
2020-Sep-15 05:28N 53°21' W 006°13'13 5.4
2020-Sep-15 03:00N 53°23' W 005°51'917.0
2020-Sep-15 02:30N 53°25' W 005°37'9316.9
2020-Sep-14 21:00N 53°27' W 003°01'0 0.4
2020-Sep-14 19:58N 53°27' W 003°01'0 0.0
2020-Sep-14 14:30N 53°27' W 003°01'0 0.0
2020-Sep-14 12:30N 53°27' W 003°01'0 0.0
2020-Sep-14 09:59N 53°27' W 003°01'0 0.0
2020-Sep-14 06:28N 53°27' W 003°01'0 0.0
2020-Sep-14 05:30N 53°27' W 003°01'0 0.0
2020-Sep-14 05:00N 53°27' W 003°01'1 0.6
2020-Sep-14 04:00N 53°27' W 003°01'714.2
2020-Sep-14 03:30N 53°32' W 003°10'816.8
2020-Sep-14 03:01N 53°31' W 003°24'815.0
2020-Sep-14 02:31N 53°31' W 003°36'2415.7
2020-Sep-14 00:59N 53°35' W 004°16'3714.8
2020-Sep-13 22:30N 53°29' W 005°17'917.0
2020-Sep-13 22:00N 53°26' W 005°31'817.3
2020-Sep-13 21:30N 53°23' W 005°44'17 3.2
2020-Sep-13 16:00N 53°21' W 006°13'0 0.0
2020-Sep-13 15:30N 53°21' W 006°13'0 0.0
2020-Sep-13 14:17N 53°21' W 006°13'0 0.0
2020-Sep-13 13:29N 53°21' W 006°13'0 0.0
2020-Sep-13 09:00N 53°21' W 006°13'0 0.0
2020-Sep-13 08:24N 53°21' W 006°13'0 0.0
2020-Sep-13 04:59N 53°21' W 006°13'1 1.3
2020-Sep-13 04:30N 53°21' W 006°12'510.7
2020-Sep-13 04:01N 53°21' W 006°03'2913.6
2020-Sep-13 01:51N 53°31' W 005°17'7415.2
2020-Sep-12 21:01N 53°31' W 003°13'714.9
2020-Sep-12 20:31N 53°28' W 003°02'1 0.9
2020-Sep-12 19:29N 53°27' W 003°01'0 0.0
2020-Sep-12 17:28N 53°27' W 003°01'0 0.0
2020-Sep-12 16:00N 53°27' W 003°01'0 0.9
2020-Sep-12 15:30N 53°27' W 003°01'8 8.0
2020-Sep-12 14:30N 53°31' W 003°12'8016.9
2020-Sep-12 09:47N 53°27' W 005°26'2217.5
2020-Sep-12 08:30N 53°20' W 006°02'6 3.1
2020-Sep-12 06:27N 53°21' W 006°13'0 0.0
2020-Sep-12 05:00N 53°21' W 006°13'0 0.0
2020-Sep-12 04:30N 53°21' W 006°13'10116.9
2020-Sep-11 22:31N 53°33' W 003°24'15 4.2
2020-Sep-11 18:59N 53°27' W 003°01'97 9.8
2020-Sep-11 09:01N 53°25' W 005°44'917.6
2020-Sep-11 08:31N 53°22' W 005°58'714.1
2020-Sep-11 08:00N 53°21' W 006°10'2 1.3
2020-Sep-11 06:30N 53°21' W 006°13'0 0.0
2020-Sep-11 05:54N 53°21' W 006°13'4 2.0
2020-Sep-11 04:00N 53°20' W 006°07'917.6
2020-Sep-11 03:30N 53°23' W 005°53'7617.8
2020-Sep-10 23:16N 53°34' W 003°47'2318.5
2020-Sep-10 22:01N 53°32' W 003°08'612.4
2020-Sep-10 21:30N 53°27' W 003°01'0 0.1
2020-Sep-10 21:00N 53°27' W 003°01'0 0.3
2020-Sep-10 19:30N 53°27' W 003°01'27 5.3
2020-Sep-10 14:30N 53°32' W 003°45'6713.4
2020-Sep-10 09:30N 53°26' W 005°37'2214.6
2020-Sep-10 08:00N 53°21' W 006°13'0 0.1
2020-Sep-10 05:00N 53°21' W 006°13'4 3.0
2020-Sep-10 03:30N 53°20' W 006°06'8517.3
2020-Sep-09 22:37N 53°33' W 003°45'27 8.6
2020-Sep-09 19:29N 53°27' W 003°01'0 0.0
2020-Sep-09 17:59N 53°27' W 003°01'0 0.0
2020-Sep-09 17:28N 53°27' W 003°01'2 1.1
2020-Sep-09 16:00N 53°28' W 003°03'9313.5
2020-Sep-09 09:07N 53°26' W 005°39'218.0
2020-Sep-09 08:59N 53°25' W 005°43'1616.4
2020-Sep-09 08:00N 53°21' W 006°09'  

Dump ship's entire track history